createdAt,value
2022-12-01T00:00:48.749Z,5.87
2022-12-01T00:01:49.104Z,5.88
2022-12-01T00:02:49.228Z,5.88
2022-12-01T00:03:49.138Z,5.88
2022-12-01T00:04:49.256Z,5.88
2022-12-01T00:05:49.380Z,5.90
2022-12-01T00:06:49.563Z,5.88
2022-12-01T00:07:49.767Z,5.88
2022-12-01T00:08:49.829Z,5.92
2022-12-01T00:09:50.138Z,5.92
2022-12-01T00:10:50.147Z,5.95
2022-12-01T00:11:50.278Z,5.95
2022-12-01T00:12:50.406Z,5.95
2022-12-01T00:13:50.558Z,5.93
2022-12-01T00:14:50.681Z,5.92
2022-12-01T00:15:50.805Z,5.93
2022-12-01T00:16:51.114Z,5.93
2022-12-01T00:17:51.099Z,5.92
2022-12-01T00:18:51.268Z,5.93
2022-12-01T00:19:51.418Z,5.92
2022-12-01T00:20:51.586Z,5.88
2022-12-01T00:21:51.728Z,5.88
2022-12-01T00:22:51.855Z,5.87
2022-12-01T00:23:51.994Z,5.87
2022-12-01T00:24:52.175Z,5.87
2022-12-01T00:25:52.296Z,5.85
2022-12-01T00:26:52.428Z,5.85
2022-12-01T00:27:52.568Z,5.85
2022-12-01T00:28:52.723Z,5.87
2022-12-01T00:29:52.847Z,5.84
2022-12-01T00:30:52.996Z,5.85
2022-12-01T00:31:53.187Z,5.84
2022-12-01T00:32:53.264Z,5.85
2022-12-01T00:33:53.414Z,5.85
2022-12-01T00:34:53.537Z,5.87
2022-12-01T00:35:53.657Z,5.87
2022-12-01T00:36:53.784Z,5.88
2022-12-01T00:37:53.923Z,5.87
2022-12-01T00:38:54.055Z,5.87
2022-12-01T00:39:54.176Z,5.88
2022-12-01T00:40:54.316Z,5.87
2022-12-01T00:41:54.455Z,5.85
2022-12-01T00:42:54.584Z,5.88
2022-12-01T00:43:54.745Z,5.85
2022-12-01T00:44:54.876Z,5.85
2022-12-01T00:45:55.020Z,5.83
2022-12-01T00:46:55.182Z,5.84
2022-12-01T00:47:55.314Z,5.87
2022-12-01T00:48:55.466Z,5.84
2022-12-01T00:49:55.573Z,5.84
2022-12-01T00:50:55.709Z,5.83
2022-12-01T00:51:55.854Z,5.83
2022-12-01T00:52:55.974Z,5.83
2022-12-01T00:53:56.200Z,5.83
2022-12-01T00:54:56.234Z,5.85
2022-12-01T00:55:56.415Z,5.84
2022-12-01T00:56:56.547Z,5.83
2022-12-01T00:57:56.670Z,5.83
2022-12-01T00:58:56.783Z,5.85
2022-12-01T00:59:56.902Z,5.85
2022-12-01T01:00:57.161Z,5.84
2022-12-01T01:01:57.237Z,5.85
2022-12-01T01:02:57.284Z,5.85
2022-12-01T01:03:57.391Z,5.84
2022-12-01T01:04:57.532Z,5.85
2022-12-01T01:05:57.671Z,5.85
2022-12-01T01:06:57.790Z,5.85
2022-12-01T01:07:58.045Z,5.85
2022-12-01T01:08:58.075Z,5.83
2022-12-01T01:09:58.200Z,5.83
2022-12-01T01:10:58.347Z,5.83
2022-12-01T01:11:58.440Z,5.84
2022-12-01T01:12:58.572Z,5.85
2022-12-01T01:13:58.739Z,5.83
2022-12-01T01:14:58.895Z,5.85
2022-12-01T01:15:59.040Z,5.87
2022-12-01T01:16:59.256Z,5.85
2022-12-01T01:17:59.332Z,5.88
2022-12-01T01:18:59.448Z,5.90
2022-12-01T01:19:59.569Z,5.88
2022-12-01T01:20:59.722Z,5.85
2022-12-01T01:21:59.860Z,5.87
2022-12-01T01:23:00.000Z,5.85
2022-12-01T01:24:00.144Z,5.85
2022-12-01T01:25:00.261Z,5.85
2022-12-01T01:26:00.388Z,5.85
2022-12-01T01:27:00.531Z,5.85
2022-12-01T01:28:00.672Z,5.84
2022-12-01T01:29:00.801Z,5.84
2022-12-01T01:30:00.956Z,5.84
2022-12-01T01:31:01.112Z,5.84
2022-12-01T01:32:01.237Z,5.83
2022-12-01T01:33:01.420Z,5.84
2022-12-01T01:34:01.498Z,5.85
2022-12-01T01:35:01.632Z,5.85
2022-12-01T01:36:01.748Z,5.87
2022-12-01T01:37:01.865Z,5.87
2022-12-01T01:38:01.998Z,5.88
2022-12-01T01:39:02.139Z,5.87
2022-12-01T01:40:02.259Z,5.88
2022-12-01T01:41:02.420Z,5.87
2022-12-01T01:42:02.547Z,5.87
2022-12-01T01:43:02.708Z,5.92
2022-12-01T01:44:02.854Z,5.88
2022-12-01T01:45:02.977Z,5.90
2022-12-01T01:46:04.632Z,5.93
2022-12-01T01:47:03.278Z,5.92
2022-12-01T01:48:03.405Z,5.90
2022-12-01T01:49:03.550Z,5.92
2022-12-01T01:50:03.649Z,5.92
2022-12-01T01:51:03.776Z,5.90
2022-12-01T01:52:03.929Z,5.88
2022-12-01T01:53:04.070Z,5.90
2022-12-01T01:54:04.216Z,5.90
2022-12-01T01:55:04.369Z,5.90
2022-12-01T01:56:04.518Z,5.90
2022-12-01T01:57:04.723Z,5.92
2022-12-01T01:58:04.815Z,5.93
2022-12-01T01:59:05.064Z,5.92
2022-12-01T02:00:05.115Z,5.93
2022-12-01T02:01:05.345Z,5.92
2022-12-01T02:02:05.460Z,5.92
2022-12-01T02:03:05.556Z,5.90
2022-12-01T02:04:05.707Z,5.90
2022-12-01T02:05:05.954Z,5.92
2022-12-01T02:06:05.986Z,5.92
2022-12-01T02:07:06.111Z,5.92
2022-12-01T02:08:06.270Z,5.90
2022-12-01T02:09:06.407Z,5.90
2022-12-01T02:10:06.565Z,5.92
2022-12-01T02:11:06.683Z,5.90
2022-12-01T02:12:06.796Z,5.90
2022-12-01T02:13:06.933Z,5.92
2022-12-01T02:14:07.073Z,5.92
2022-12-01T02:15:07.210Z,5.92
2022-12-01T02:16:07.354Z,5.92
2022-12-01T02:17:07.526Z,5.90
2022-12-01T02:18:07.626Z,5.88
2022-12-01T02:19:07.752Z,5.90
2022-12-01T02:20:07.910Z,5.93
2022-12-01T02:21:08.042Z,5.92
2022-12-01T02:22:08.174Z,5.93
2022-12-01T02:23:08.328Z,5.95
2022-12-01T02:24:08.469Z,5.96
2022-12-01T02:25:08.626Z,5.93
2022-12-01T02:26:08.776Z,5.96
2022-12-01T02:27:08.903Z,5.96
2022-12-01T02:28:09.054Z,5.95
2022-12-01T02:29:09.183Z,5.95
2022-12-01T02:30:09.299Z,5.96
2022-12-01T02:31:09.546Z,5.95
2022-12-01T02:32:09.623Z,5.95
2022-12-01T02:33:09.744Z,5.93
2022-12-01T02:34:09.851Z,5.95
2022-12-01T02:35:10.005Z,5.93
2022-12-01T02:36:10.086Z,5.95
2022-12-01T02:37:10.202Z,5.92
2022-12-01T02:38:10.321Z,5.92
2022-12-01T02:39:10.497Z,5.92
2022-12-01T02:40:10.554Z,5.92
2022-12-01T02:41:10.712Z,5.90
2022-12-01T02:42:10.820Z,5.90
2022-12-01T02:43:10.993Z,5.90
2022-12-01T02:44:11.050Z,5.90
2022-12-01T02:45:11.218Z,5.90
2022-12-01T02:46:11.393Z,5.93
2022-12-01T02:47:11.460Z,5.92
2022-12-01T02:48:11.618Z,5.90
2022-12-01T02:49:11.731Z,5.90
2022-12-01T02:50:11.860Z,5.90
2022-12-01T02:51:12.020Z,5.88
2022-12-01T02:52:12.168Z,5.88
2022-12-01T02:53:12.287Z,5.88
2022-12-01T02:54:12.409Z,5.88
2022-12-01T02:55:12.549Z,5.87
2022-12-01T02:56:12.700Z,5.90
2022-12-01T02:57:12.838Z,5.90
2022-12-01T02:58:12.990Z,5.90
2022-12-01T02:59:13.124Z,5.88
2022-12-01T03:00:13.230Z,5.92
2022-12-01T03:01:13.363Z,5.92
2022-12-01T03:02:13.515Z,5.88
2022-12-01T03:03:13.599Z,5.87
2022-12-01T03:04:13.725Z,5.85
2022-12-01T03:05:13.928Z,5.87
2022-12-01T03:06:13.978Z,5.87
2022-12-01T03:07:14.119Z,5.87
2022-12-01T03:08:14.266Z,5.88
2022-12-01T03:09:14.390Z,5.87
2022-12-01T03:10:14.504Z,5.87
2022-12-01T03:11:14.614Z,5.84
2022-12-01T03:12:14.761Z,5.87
2022-12-01T03:13:14.887Z,5.85
2022-12-01T03:14:14.998Z,5.85
2022-12-01T03:15:15.106Z,5.85
2022-12-01T03:16:15.345Z,5.84
2022-12-01T03:17:15.427Z,5.83
2022-12-01T03:18:15.515Z,5.81
2022-12-01T03:19:15.667Z,5.83
2022-12-01T03:20:15.755Z,5.81
2022-12-01T03:21:15.875Z,5.83
2022-12-01T03:22:16.014Z,5.83
2022-12-01T03:23:16.161Z,5.83
2022-12-01T03:24:16.307Z,5.83
2022-12-01T03:25:16.428Z,5.83
2022-12-01T03:26:16.559Z,5.83
2022-12-01T03:27:16.674Z,5.84
2022-12-01T03:28:21.517Z,5.83
2022-12-01T03:29:17.905Z,5.83
2022-12-01T03:30:17.045Z,5.81
2022-12-01T03:31:17.283Z,5.83
2022-12-01T03:32:17.317Z,5.83
2022-12-01T03:33:17.444Z,5.84
2022-12-01T03:34:17.563Z,5.81
2022-12-01T03:35:17.665Z,5.83
2022-12-01T03:36:17.857Z,5.81
2022-12-01T03:37:18.007Z,5.80
2022-12-01T03:38:18.177Z,5.78
2022-12-01T03:39:18.283Z,5.77
2022-12-01T03:40:18.416Z,5.78
2022-12-01T03:41:18.587Z,5.77
2022-12-01T03:42:18.761Z,5.78
2022-12-01T03:43:18.985Z,5.77
2022-12-01T03:44:19.104Z,5.80
2022-12-01T03:45:19.133Z,5.80
2022-12-01T03:46:19.346Z,5.78
2022-12-01T03:47:19.382Z,5.80
2022-12-01T03:48:19.565Z,5.78
2022-12-01T03:49:19.706Z,5.80
2022-12-01T03:50:19.866Z,5.81
2022-12-01T03:51:20.049Z,5.80
2022-12-01T03:52:20.165Z,5.78
2022-12-01T03:53:20.292Z,5.75
2022-12-01T03:54:20.434Z,5.75
2022-12-01T03:55:20.539Z,5.78
2022-12-01T03:56:20.673Z,5.78
2022-12-01T03:57:20.794Z,5.77
2022-12-01T03:58:20.943Z,5.80
2022-12-01T03:59:21.103Z,5.80
2022-12-01T04:00:21.275Z,5.80
2022-12-01T04:01:21.486Z,5.78
2022-12-01T04:02:21.626Z,5.77
2022-12-01T04:03:21.691Z,5.75
2022-12-01T04:04:21.832Z,5.77
2022-12-01T04:05:25.339Z,5.77
2022-12-01T04:06:22.161Z,5.74
2022-12-01T04:07:22.300Z,5.77
2022-12-01T04:08:22.411Z,5.78
2022-12-01T04:09:22.558Z,5.77
2022-12-01T04:10:22.735Z,5.77
2022-12-01T04:11:22.873Z,5.75
2022-12-01T04:12:23.021Z,5.74
2022-12-01T04:13:23.130Z,5.75
2022-12-01T04:14:23.246Z,5.74
2022-12-01T04:15:23.386Z,5.74
2022-12-01T04:16:23.611Z,5.73
2022-12-01T04:17:23.689Z,5.74
2022-12-01T04:18:23.828Z,5.74
2022-12-01T04:19:23.931Z,5.75
2022-12-01T04:20:24.060Z,5.74
2022-12-01T04:21:24.209Z,5.75
2022-12-01T04:22:24.360Z,5.75
2022-12-01T04:23:24.510Z,5.78
2022-12-01T04:24:24.669Z,5.78
2022-12-01T04:25:24.791Z,5.78
2022-12-01T04:26:24.937Z,5.78
2022-12-01T04:27:25.088Z,5.78
2022-12-01T04:28:25.247Z,5.80
2022-12-01T04:29:25.383Z,5.80
2022-12-01T04:30:25.509Z,5.80
2022-12-01T04:31:25.703Z,5.78
2022-12-01T04:32:25.831Z,5.75
2022-12-01T04:33:26.035Z,5.77
2022-12-01T04:34:26.147Z,5.77
2022-12-01T04:35:26.273Z,5.74
2022-12-01T04:36:26.418Z,5.75
2022-12-01T04:37:26.546Z,5.78
2022-12-01T04:38:30.499Z,5.80
2022-12-01T04:39:26.797Z,5.81
2022-12-01T04:40:26.955Z,5.81
2022-12-01T04:41:27.107Z,5.81
2022-12-01T04:42:27.240Z,5.80
2022-12-01T04:43:27.406Z,5.81
2022-12-01T04:44:33.014Z,5.81
2022-12-01T04:45:28.714Z,5.81
2022-12-01T04:46:27.868Z,5.80
2022-12-01T04:47:28.026Z,5.80
2022-12-01T04:48:28.159Z,5.80
2022-12-01T04:49:28.334Z,5.78
2022-12-01T04:50:28.463Z,5.78
2022-12-01T04:51:28.604Z,5.78
2022-12-01T04:52:34.871Z,5.78
2022-12-01T04:53:29.915Z,5.80
2022-12-01T04:54:29.080Z,5.78
2022-12-01T04:55:29.219Z,5.78
2022-12-01T04:56:29.373Z,5.80
2022-12-01T04:57:29.536Z,5.83
2022-12-01T04:58:29.744Z,5.81
2022-12-01T04:59:29.856Z,5.81
2022-12-01T05:00:29.993Z,5.85
2022-12-01T05:01:30.045Z,5.81
2022-12-01T05:02:30.311Z,5.81
2022-12-01T05:03:30.354Z,5.81
2022-12-01T05:04:30.493Z,5.81
2022-12-01T05:05:30.653Z,5.83
2022-12-01T05:06:30.835Z,5.81
2022-12-01T05:07:31.000Z,5.83
2022-12-01T05:08:31.085Z,5.81
2022-12-01T05:09:31.225Z,5.81
2022-12-01T05:10:31.385Z,5.83
2022-12-01T05:11:31.525Z,5.81
2022-12-01T05:12:31.681Z,5.78
2022-12-01T05:13:31.834Z,5.78
2022-12-01T05:14:31.969Z,5.78
2022-12-01T05:15:32.103Z,5.78
2022-12-01T05:16:32.310Z,5.78
2022-12-01T05:17:36.740Z,5.77
2022-12-01T05:18:32.543Z,5.75
2022-12-01T05:19:32.592Z,5.77
2022-12-01T05:20:32.724Z,5.75
2022-12-01T05:21:32.950Z,5.77
2022-12-01T05:23:03.798Z,5.75
2022-12-01T05:23:34.156Z,5.75
2022-12-01T05:24:33.263Z,5.75
2022-12-01T05:25:33.388Z,5.73
2022-12-01T05:26:33.532Z,5.73
2022-12-01T05:27:33.700Z,5.70
2022-12-01T05:28:33.853Z,5.73
2022-12-01T05:29:33.980Z,5.73
2022-12-01T05:30:34.117Z,5.70
2022-12-01T05:31:34.385Z,5.73
2022-12-01T05:32:34.455Z,5.69
2022-12-01T05:33:34.651Z,5.70
2022-12-01T05:34:34.754Z,5.70
2022-12-01T05:35:35.641Z,5.74
2022-12-01T05:36:35.080Z,5.74
2022-12-01T05:37:35.276Z,5.74
2022-12-01T05:38:35.342Z,5.73
2022-12-01T05:39:35.474Z,5.74
2022-12-01T05:40:35.604Z,5.77
2022-12-01T05:41:35.726Z,5.78
2022-12-01T05:42:35.869Z,5.75
2022-12-01T05:43:36.009Z,5.77
2022-12-01T05:44:36.981Z,5.75
2022-12-01T05:45:36.378Z,5.74
2022-12-01T05:46:36.492Z,5.74
2022-12-01T05:47:36.639Z,5.73
2022-12-01T05:48:36.791Z,5.73
2022-12-01T05:49:36.943Z,5.70
2022-12-01T05:50:37.097Z,5.73
2022-12-01T05:51:37.229Z,5.69
2022-12-01T05:52:37.379Z,5.73
2022-12-01T05:53:37.540Z,5.70
2022-12-01T05:54:37.677Z,5.70
2022-12-01T05:55:38.565Z,5.69
2022-12-01T05:56:38.027Z,5.69
2022-12-01T05:57:38.361Z,5.69
2022-12-01T05:58:38.250Z,5.67
2022-12-01T05:59:38.387Z,5.69
2022-12-01T06:00:45.032Z,5.66
2022-12-01T06:01:39.644Z,5.67
2022-12-01T06:02:38.786Z,5.67
2022-12-01T06:03:39.135Z,5.69
2022-12-01T06:04:39.116Z,5.67
2022-12-01T06:05:39.301Z,5.66
2022-12-01T06:06:39.447Z,5.67
2022-12-01T06:07:39.606Z,5.69
2022-12-01T06:08:39.719Z,5.69
2022-12-01T06:09:39.889Z,5.67
2022-12-01T06:10:40.037Z,5.69
2022-12-01T06:11:40.507Z,5.67
2022-12-01T06:12:40.338Z,5.67
2022-12-01T06:13:40.483Z,5.65
2022-12-01T06:14:40.651Z,5.69
2022-12-01T06:15:40.736Z,5.67
2022-12-01T06:16:40.956Z,5.66
2022-12-01T06:17:41.026Z,5.65
2022-12-01T06:18:41.165Z,5.65
2022-12-01T06:19:41.244Z,5.65
2022-12-01T06:20:41.416Z,5.65
2022-12-01T06:21:41.540Z,5.65
2022-12-01T06:22:41.673Z,5.66
2022-12-01T06:23:41.839Z,5.65
2022-12-01T06:24:42.008Z,5.69
2022-12-01T06:25:42.105Z,5.67
2022-12-01T06:26:42.234Z,5.67
2022-12-01T06:27:42.378Z,5.66
2022-12-01T06:28:42.505Z,5.66
2022-12-01T06:29:42.633Z,5.66
2022-12-01T06:30:42.805Z,5.66
2022-12-01T06:31:42.992Z,5.67
2022-12-01T06:32:43.088Z,5.67
2022-12-01T06:33:43.195Z,5.69
2022-12-01T06:34:43.375Z,5.67
2022-12-01T06:35:43.443Z,5.69
2022-12-01T06:36:43.603Z,5.69
2022-12-01T06:37:43.724Z,5.69
2022-12-01T06:38:43.873Z,5.69
2022-12-01T06:39:44.752Z,5.66
2022-12-01T06:40:44.203Z,5.67
2022-12-01T06:41:44.354Z,5.67
2022-12-01T06:42:44.537Z,5.67
2022-12-01T06:43:44.664Z,5.67
2022-12-01T06:44:44.864Z,5.69
2022-12-01T06:45:44.995Z,5.69
2022-12-01T06:46:45.392Z,5.67
2022-12-01T06:47:46.704Z,5.67
2022-12-01T06:48:45.543Z,5.66
2022-12-01T06:49:46.340Z,5.66
2022-12-01T06:50:46.392Z,5.69
2022-12-01T06:51:46.542Z,5.69
2022-12-01T06:52:46.733Z,5.69
2022-12-01T06:53:46.133Z,5.70
2022-12-01T06:54:46.996Z,5.70
2022-12-01T06:55:46.382Z,5.74
2022-12-01T06:56:47.261Z,5.70
2022-12-01T06:57:46.722Z,5.66
2022-12-01T06:58:47.532Z,5.66
2022-12-01T06:59:47.489Z,5.65
2022-12-01T07:00:51.877Z,5.65
2022-12-01T07:01:48.345Z,5.65
2022-12-01T07:02:48.314Z,5.67
2022-12-01T07:03:47.452Z,5.67
2022-12-01T07:04:47.882Z,5.65
2022-12-01T07:05:47.692Z,5.65
2022-12-01T07:06:47.849Z,5.65
2022-12-01T07:07:47.995Z,5.66
2022-12-01T07:08:48.130Z,5.63
2022-12-01T07:09:48.612Z,5.63
2022-12-01T07:10:48.437Z,5.63
2022-12-01T07:11:48.603Z,5.62
2022-12-01T07:12:48.787Z,5.62
2022-12-01T07:13:48.931Z,5.62
2022-12-01T07:14:49.110Z,5.62
2022-12-01T07:15:49.260Z,5.62
2022-12-01T07:16:49.447Z,5.62
2022-12-01T07:17:49.480Z,5.62
2022-12-01T07:18:49.632Z,5.62
2022-12-01T07:19:50.080Z,5.63
2022-12-01T07:20:49.905Z,5.63
2022-12-01T07:21:50.008Z,5.63
2022-12-01T07:22:50.106Z,5.62
2022-12-01T07:23:50.335Z,5.65
2022-12-01T07:24:50.428Z,5.63
2022-12-01T07:25:50.569Z,5.63
2022-12-01T07:26:50.719Z,5.63
2022-12-01T07:27:50.847Z,5.63
2022-12-01T07:28:50.981Z,5.62
2022-12-01T07:29:51.484Z,5.62
2022-12-01T07:30:51.313Z,5.63
2022-12-01T07:31:51.387Z,5.63
2022-12-01T07:32:51.509Z,5.65
2022-12-01T07:33:51.670Z,5.66
2022-12-01T07:34:51.788Z,5.66
2022-12-01T07:35:51.907Z,5.65
2022-12-01T07:36:52.039Z,5.67
2022-12-01T07:37:52.169Z,5.66
2022-12-01T07:38:52.295Z,5.67
2022-12-01T07:39:52.438Z,5.66
2022-12-01T07:40:52.585Z,5.65
2022-12-01T07:41:52.717Z,5.65
2022-12-01T07:42:52.878Z,5.66
2022-12-01T07:43:53.026Z,5.66
2022-12-01T07:44:53.158Z,5.67
2022-12-01T07:45:53.312Z,5.67
2022-12-01T07:46:54.164Z,5.69
2022-12-01T07:47:53.604Z,5.69
2022-12-01T07:48:53.748Z,5.66
2022-12-01T07:49:53.907Z,5.69
2022-12-01T07:50:54.025Z,5.66
2022-12-01T07:51:54.153Z,5.67
2022-12-01T07:52:54.274Z,5.69
2022-12-01T07:53:54.421Z,5.67
2022-12-01T07:54:54.566Z,5.73
2022-12-01T07:55:54.954Z,5.74
2022-12-01T07:56:54.817Z,5.74
2022-12-01T07:57:54.941Z,5.74
2022-12-01T07:58:56.026Z,5.73
2022-12-01T07:59:55.267Z,5.69
2022-12-01T08:00:55.415Z,5.74
2022-12-01T08:01:55.727Z,5.75
2022-12-01T08:02:55.732Z,5.74
2022-12-01T08:03:55.890Z,5.73
2022-12-01T08:04:56.023Z,5.74
2022-12-01T08:05:56.196Z,5.73
2022-12-01T08:06:56.311Z,5.70
2022-12-01T08:07:56.581Z,5.69
2022-12-01T08:08:56.584Z,5.67
2022-12-01T08:09:56.675Z,5.73
2022-12-01T08:10:56.805Z,5.74
2022-12-01T08:11:56.953Z,5.74
2022-12-01T08:12:57.135Z,5.74
2022-12-01T08:13:57.270Z,5.74
2022-12-01T08:14:57.513Z,5.75
2022-12-01T08:15:57.627Z,5.77
2022-12-01T08:16:57.663Z,5.75
2022-12-01T08:17:57.811Z,5.77
2022-12-01T08:18:57.953Z,5.75
2022-12-01T08:19:58.092Z,5.75
2022-12-01T08:20:58.263Z,5.75
2022-12-01T08:21:58.419Z,5.80
2022-12-01T08:22:58.597Z,5.78
2022-12-01T08:23:58.685Z,5.77
2022-12-01T08:24:58.779Z,5.77
2022-12-01T08:25:58.973Z,5.74
2022-12-01T08:26:59.102Z,5.74
2022-12-01T08:27:59.242Z,5.77
2022-12-01T08:28:59.421Z,5.78
2022-12-01T08:29:59.582Z,5.75
2022-12-01T08:30:59.757Z,5.74
2022-12-01T08:31:59.840Z,5.74
2022-12-01T08:33:00.283Z,5.74
2022-12-01T08:34:00.166Z,5.75
2022-12-01T08:35:00.320Z,5.75
2022-12-01T08:36:00.468Z,5.77
2022-12-01T08:37:00.630Z,5.77
2022-12-01T08:38:00.848Z,5.75
2022-12-01T08:39:00.937Z,5.75
2022-12-01T08:40:01.089Z,5.75
2022-12-01T08:41:01.258Z,5.75
2022-12-01T08:42:01.490Z,5.75
2022-12-01T08:43:01.727Z,5.75
2022-12-01T08:44:08.838Z,5.74
2022-12-01T08:45:02.939Z,5.70
2022-12-01T08:46:02.067Z,5.74
2022-12-01T08:47:02.130Z,5.75
2022-12-01T08:48:02.290Z,5.70
2022-12-01T08:49:02.460Z,5.70
2022-12-01T08:50:02.627Z,5.73
2022-12-01T08:51:02.798Z,5.74
2022-12-01T08:52:02.966Z,5.73
2022-12-01T08:53:03.123Z,5.70
2022-12-01T08:54:03.327Z,5.70
2022-12-01T08:55:03.427Z,5.69
2022-12-01T08:56:03.567Z,5.69
2022-12-01T08:57:03.737Z,5.69
2022-12-01T08:58:03.877Z,5.67
2022-12-01T08:59:04.044Z,5.69
2022-12-01T09:00:04.209Z,5.69
2022-12-01T09:01:04.364Z,5.66
2022-12-01T09:02:07.098Z,5.66
2022-12-01T09:03:04.641Z,5.63
2022-12-01T09:04:04.798Z,5.62
2022-12-01T09:05:04.923Z,5.65
2022-12-01T09:06:05.076Z,5.66
2022-12-01T09:07:05.245Z,5.65
2022-12-01T09:08:05.480Z,5.66
2022-12-01T09:09:05.584Z,5.65
2022-12-01T09:10:05.660Z,5.66
2022-12-01T09:11:05.826Z,5.70
2022-12-01T09:12:05.985Z,5.70
2022-12-01T09:13:06.124Z,5.70
2022-12-01T09:14:06.290Z,5.70
2022-12-01T09:15:06.434Z,5.73
2022-12-01T09:16:06.781Z,5.74
2022-12-01T09:17:06.746Z,5.74
2022-12-01T09:18:06.877Z,5.74
2022-12-01T09:19:07.027Z,5.75
2022-12-01T09:20:07.153Z,5.75
2022-12-01T09:21:07.296Z,5.74
2022-12-01T09:22:07.464Z,5.75
2022-12-01T09:23:07.566Z,5.75
2022-12-01T09:24:07.870Z,5.78
2022-12-01T09:25:07.858Z,5.81
2022-12-01T09:26:13.199Z,5.83
2022-12-01T09:27:09.166Z,5.83
2022-12-01T09:28:08.307Z,5.81
2022-12-01T09:29:08.503Z,5.78
2022-12-01T09:30:08.574Z,5.77
2022-12-01T09:31:08.861Z,5.78
2022-12-01T09:32:08.943Z,5.77
2022-12-01T09:33:09.130Z,5.80
2022-12-01T09:34:09.201Z,5.83
2022-12-01T09:35:09.379Z,5.84
2022-12-01T09:36:09.554Z,5.84
2022-12-01T09:37:09.631Z,5.85
2022-12-01T09:38:09.803Z,5.88
2022-12-01T09:39:09.903Z,5.84
2022-12-01T09:40:10.101Z,5.85
2022-12-01T09:41:10.952Z,5.87
2022-12-01T09:42:10.337Z,5.88
2022-12-01T09:43:10.501Z,5.87
2022-12-01T09:44:10.660Z,5.90
2022-12-01T09:45:10.835Z,5.87
2022-12-01T09:46:11.059Z,5.84
2022-12-01T09:47:11.193Z,5.83
2022-12-01T09:48:11.241Z,5.80
2022-12-01T09:49:11.319Z,5.77
2022-12-01T09:50:11.478Z,5.77
2022-12-01T09:51:11.612Z,5.77
2022-12-01T09:52:11.741Z,5.78
2022-12-01T09:53:11.959Z,5.78
2022-12-01T09:54:12.060Z,5.78
2022-12-01T09:55:12.201Z,5.80
2022-12-01T09:56:13.216Z,5.81
2022-12-01T09:57:12.512Z,5.77
2022-12-01T09:58:12.560Z,5.78
2022-12-01T09:59:12.710Z,5.80
2022-12-01T10:00:12.890Z,5.78
2022-12-01T10:01:13.104Z,5.78
2022-12-01T10:03:11.826Z,5.80
2022-12-01T10:04:11.966Z,5.83
2022-12-01T10:05:12.115Z,5.83
2022-12-01T10:06:27.402Z,5.81
2022-12-01T10:07:13.374Z,5.81
2022-12-01T10:08:12.516Z,5.80
2022-12-01T10:09:12.645Z,5.78
2022-12-01T10:10:12.773Z,5.80
2022-12-01T10:11:12.894Z,5.83
2022-12-01T10:12:13.024Z,5.85
2022-12-01T10:13:13.151Z,5.87
2022-12-01T10:14:19.259Z,5.87
2022-12-01T10:15:14.392Z,5.90
2022-12-01T10:16:13.584Z,5.99
2022-12-01T10:17:13.614Z,6.06
2022-12-01T10:18:13.734Z,6.05
2022-12-01T10:19:14.015Z,6.03
2022-12-01T10:20:14.032Z,6.10
2022-12-01T10:21:14.151Z,6.11
2022-12-01T10:22:14.295Z,6.11
2022-12-01T10:23:14.383Z,6.11
2022-12-01T10:24:14.524Z,6.14
2022-12-01T10:25:14.631Z,6.19
2022-12-01T10:26:14.804Z,6.20
2022-12-01T10:27:14.945Z,6.14
2022-12-01T10:28:15.105Z,6.17
2022-12-01T10:29:15.221Z,6.20
2022-12-01T10:30:15.365Z,6.19
2022-12-01T10:31:15.572Z,6.20
2022-12-01T10:32:15.653Z,6.20
2022-12-01T10:33:15.771Z,6.21
2022-12-01T10:34:15.900Z,6.24
2022-12-01T10:35:16.070Z,6.21
2022-12-01T10:36:16.304Z,6.20
2022-12-01T10:37:16.399Z,6.21
2022-12-01T10:38:16.496Z,6.24
2022-12-01T10:39:16.622Z,6.24
2022-12-01T10:40:16.773Z,6.24
2022-12-01T10:41:16.903Z,6.25
2022-12-01T10:42:17.046Z,6.27
2022-12-01T10:43:17.163Z,6.28
2022-12-01T10:44:17.300Z,6.28
2022-12-01T10:45:17.420Z,6.30
2022-12-01T10:46:17.611Z,6.20
2022-12-01T10:47:17.710Z,6.17
2022-12-01T10:48:17.830Z,6.19
2022-12-01T10:49:17.952Z,6.17
2022-12-01T10:50:18.120Z,6.16
2022-12-01T10:51:18.249Z,6.16
2022-12-01T10:52:18.371Z,6.17
2022-12-01T10:53:18.492Z,6.20
2022-12-01T10:54:18.619Z,6.19
2022-12-01T10:55:18.738Z,6.19
2022-12-01T10:56:18.887Z,6.24
2022-12-01T10:57:19.051Z,6.24
2022-12-01T10:58:19.192Z,6.27
2022-12-01T10:59:19.350Z,6.27
2022-12-01T11:00:51.409Z,6.28
2022-12-01T11:01:20.717Z,6.32
2022-12-01T11:02:19.951Z,6.38
2022-12-01T11:03:21.796Z,6.38
2022-12-01T11:04:20.060Z,6.40
2022-12-01T11:05:20.188Z,6.36
2022-12-01T11:06:20.322Z,6.36
2022-12-01T11:07:20.532Z,6.39
2022-12-01T11:08:20.607Z,6.40
2022-12-01T11:09:25.982Z,6.45
2022-12-01T11:10:21.934Z,6.45
2022-12-01T11:11:20.970Z,6.38
2022-12-01T11:12:21.116Z,6.38
2022-12-01T11:13:21.216Z,6.36
2022-12-01T11:14:21.357Z,6.28
2022-12-01T11:15:21.499Z,6.27
2022-12-01T11:16:21.616Z,6.25
2022-12-01T11:17:21.726Z,6.27
2022-12-01T11:18:21.829Z,6.28
2022-12-01T11:19:27.338Z,6.33
2022-12-01T11:20:23.345Z,6.39
2022-12-01T11:21:22.314Z,6.40
2022-12-01T11:22:22.517Z,6.43
2022-12-01T11:23:22.536Z,6.51
2022-12-01T11:24:22.657Z,6.50
2022-12-01T11:25:22.787Z,6.50
2022-12-01T11:26:22.946Z,6.50
2022-12-01T11:27:23.130Z,6.55
2022-12-01T11:28:23.166Z,6.57
2022-12-01T11:29:23.290Z,6.57
2022-12-01T11:30:23.425Z,6.58
2022-12-01T11:31:24.721Z,6.61
2022-12-01T11:32:23.770Z,6.63
2022-12-01T11:33:23.826Z,6.68
2022-12-01T11:34:23.957Z,6.71
2022-12-01T11:35:24.074Z,6.64
2022-12-01T11:36:24.206Z,6.61
2022-12-01T11:37:24.345Z,6.60
2022-12-01T11:38:31.564Z,6.60
2022-12-01T11:39:25.632Z,6.64
2022-12-01T11:40:24.770Z,6.64
2022-12-01T11:41:24.913Z,6.68
2022-12-01T11:42:25.034Z,6.60
2022-12-01T11:43:25.191Z,6.57
2022-12-01T11:45:26.536Z,6.50
2022-12-01T11:46:25.624Z,6.53
2022-12-01T11:47:25.720Z,6.53
2022-12-01T11:48:25.925Z,6.54
2022-12-01T11:49:26.423Z,6.51
2022-12-01T11:50:26.155Z,6.46
2022-12-01T11:51:26.244Z,6.40
2022-12-01T11:52:26.376Z,6.35
2022-12-01T11:53:26.502Z,6.35
2022-12-01T11:54:26.644Z,6.33
2022-12-01T11:55:27.892Z,6.30
2022-12-01T11:56:26.892Z,6.32
2022-12-01T11:57:35.162Z,6.30
2022-12-01T11:58:28.240Z,6.30
2022-12-01T11:59:27.339Z,6.28
2022-12-01T12:00:27.483Z,6.30
2022-12-01T12:01:27.576Z,6.27
2022-12-01T12:02:27.798Z,6.28
2022-12-01T12:03:27.843Z,6.28
2022-12-01T12:04:27.935Z,6.32
2022-12-01T12:05:28.074Z,6.35
2022-12-01T12:06:43.462Z,6.36
2022-12-01T12:07:29.413Z,6.40
2022-12-01T12:08:28.522Z,6.48
2022-12-01T12:09:28.662Z,6.53
2022-12-01T12:10:28.865Z,6.57
2022-12-01T12:11:28.908Z,6.58
2022-12-01T12:12:29.036Z,6.54
2022-12-01T12:13:29.158Z,6.48
2022-12-01T12:14:29.282Z,6.46
2022-12-01T12:15:29.441Z,6.45
2022-12-01T12:16:32.022Z,6.45
2022-12-01T12:17:29.757Z,6.48
2022-12-01T12:18:29.883Z,6.50
2022-12-01T12:19:39.308Z,6.45
2022-12-01T12:20:31.181Z,6.42
2022-12-01T12:21:30.302Z,6.36
2022-12-01T12:22:30.446Z,6.33
2022-12-01T12:23:30.603Z,6.27
2022-12-01T12:24:30.710Z,6.27
2022-12-01T12:25:30.831Z,6.24
2022-12-01T12:26:30.992Z,6.20
2022-12-01T12:27:31.109Z,6.20
2022-12-01T12:28:31.230Z,6.24
2022-12-01T12:29:31.351Z,6.25
2022-12-01T12:30:31.531Z,6.27
2022-12-01T12:31:31.640Z,6.25
2022-12-01T12:32:31.774Z,6.21
2022-12-01T12:33:31.899Z,6.24
2022-12-01T12:34:32.026Z,6.25
2022-12-01T12:35:32.160Z,6.27
2022-12-01T12:36:32.579Z,6.30
2022-12-01T12:37:32.468Z,6.30
2022-12-01T12:38:32.595Z,6.28
2022-12-01T12:39:32.733Z,6.30
2022-12-01T12:40:32.853Z,6.30
2022-12-01T12:41:32.962Z,6.33
2022-12-01T12:42:33.088Z,6.35
2022-12-01T12:43:33.217Z,6.35
2022-12-01T12:44:37.012Z,6.39
2022-12-01T12:45:33.528Z,6.40
2022-12-01T12:46:33.636Z,6.38
2022-12-01T12:47:33.734Z,6.28
2022-12-01T12:48:35.980Z,6.30
2022-12-01T12:49:34.034Z,6.28
2022-12-01T12:50:34.156Z,6.30
2022-12-01T12:51:34.298Z,6.25
2022-12-01T12:52:34.389Z,6.25
2022-12-01T12:53:34.536Z,6.24
2022-12-01T12:54:34.758Z,6.21
2022-12-01T12:55:34.798Z,6.21
2022-12-01T12:56:34.953Z,6.19
2022-12-01T12:57:35.080Z,6.16
2022-12-01T12:58:35.218Z,6.17
2022-12-01T12:59:35.370Z,6.14
2022-12-01T13:00:35.500Z,6.17
2022-12-01T13:01:35.686Z,6.16
2022-12-01T13:02:35.822Z,6.13
2022-12-01T13:03:35.906Z,6.06
2022-12-01T13:04:35.996Z,6.08
2022-12-01T13:05:36.095Z,6.08
2022-12-01T13:06:36.216Z,6.11
2022-12-01T13:07:36.431Z,6.13
2022-12-01T13:08:36.466Z,6.17
2022-12-01T13:09:36.608Z,6.17
2022-12-01T13:10:36.747Z,6.24
2022-12-01T13:11:36.855Z,6.25
2022-12-01T13:12:37.026Z,6.28
2022-12-01T13:13:37.187Z,6.27
2022-12-01T13:14:37.295Z,6.30
2022-12-01T13:15:37.504Z,6.32
2022-12-01T13:16:37.554Z,6.36
2022-12-01T13:17:37.695Z,6.42
2022-12-01T13:18:37.850Z,6.43
2022-12-01T13:19:37.935Z,6.43
2022-12-01T13:20:38.075Z,6.46
2022-12-01T13:21:38.256Z,6.39
2022-12-01T13:22:38.337Z,6.33